Time;durP1;ratioP1;P1;durP2;ratioP2;P2;SDS_P1;SDS_P2;PMS_P1;PMS_P2;Temp;Humidity;BMP_temperature;BMP_pressure;BME280_temperature;BME280_humidity;BME280_pressure;Samples;Min_cycle;Max_cycle;Signal;HPM_P1;HPM_P2
2020/12/15 00:00:25;;;;;;;1.38;1.23;;;15.10;68.50;;;;;;5009991;28;20038;-81
2020/12/15 00:02:52;;;;;;;2.45;1.48;;;15.10;68.50;;;;;;5009586;28;20375;-81
2020/12/15 00:05:23;;;;;;;2.85;1.67;;;15.10;68.50;;;;;;5011449;28;20060;-81
2020/12/15 00:07:52;;;;;;;2.05;1.67;;;15.10;68.50;;;;;;5010840;28;20513;-82
2020/12/15 00:10:17;;;;;;;2.00;1.50;;;15.10;68.50;;;;;;5010052;28;20500;-81
2020/12/15 00:12:47;;;;;;;2.10;1.60;;;15.10;68.50;;;;;;4992488;28;20030;-81
2020/12/15 00:15:13;;;;;;;2.17;1.50;;;15.10;68.40;;;;;;5009468;28;20105;-81
2020/12/15 00:17:39;;;;;;;2.13;1.50;;;15.10;68.50;;;;;;5005312;28;20080;-80
2020/12/15 00:20:07;;;;;;;1.70;1.45;;;15.10;68.50;;;;;;4991438;28;20030;-81
2020/12/15 00:22:34;;;;;;;1.38;1.27;;;15.10;68.50;;;;;;5018405;28;20025;-81
2020/12/15 00:25:03;;;;;;;2.08;1.65;;;15.10;68.50;;;;;;5010207;28;20030;-81
2020/12/15 00:27:29;;;;;;;1.58;1.40;;;15.10;68.50;;;;;;5011684;28;20046;-81
2020/12/15 00:29:55;;;;;;;1.80;1.48;;;15.10;68.50;;;;;;4992559;28;20538;-81
2020/12/15 00:32:20;;;;;;;1.77;1.42;;;15.10;68.50;;;;;;5010371;28;20033;-81
2020/12/15 00:34:51;;;;;;;5.30;1.65;;;15.10;68.50;;;;;;5009697;28;20124;-82
2020/12/15 00:37:16;;;;;;;1.90;1.67;;;15.10;68.50;;;;;;5017005;28;20036;-82
2020/12/15 00:39:43;;;;;;;1.70;1.60;;;15.10;68.60;;;;;;5010503;28;20038;-81
2020/12/15 00:42:11;;;;;;;1.88;1.42;;;15.10;68.50;;;;;;5010885;28;20124;-81
2020/12/15 00:44:36;;;;;;;;;;;15.10;68.60;;;;;;4994968;28;20125;-81
2020/12/15 00:47:05;;;;;;;1.95;1.50;;;15.10;68.60;;;;;;5008679;28;19917;-82
2020/12/15 00:49:32;;;;;;;1.25;1.15;;;15.10;68.60;;;;;;5009473;28;20038;-81
2020/12/15 00:51:58;;;;;;;1.95;1.60;;;15.10;68.60;;;;;;5007685;28;20026;-82
2020/12/15 00:54:28;;;;;;;2.22;1.70;;;15.10;68.60;;;;;;5008151;28;20081;-81
2020/12/15 00:56:54;;;;;;;1.80;1.70;;;15.10;68.60;;;;;;4996551;28;20034;-81
2020/12/15 00:59:20;;;;;;;1.83;1.60;;;15.10;68.50;;;;;;5009997;28;20073;-82
2020/12/15 01:01:45;;;;;;;2.40;1.73;;;15.10;68.50;;;;;;5010315;28;20475;-82
2020/12/15 01:04:16;;;;;;;1.70;1.40;;;15.10;68.60;;;;;;4992642;28;20679;-81
2020/12/15 01:06:49;;;;;;;1.60;1.40;;;15.10;68.50;;;;;;5011490;28;20402;-81
2020/12/15 01:09:15;;;;;;;1.63;1.50;;;15.10;68.50;;;;;;4993645;28;20048;-80
2020/12/15 01:11:41;;;;;;;2.30;1.38;;;15.10;68.60;;;;;;4999402;28;20030;-82
2020/12/15 01:14:07;;;;;;;1.50;1.40;;;15.10;68.50;;;;;;5010620;28;20037;-82
2020/12/15 01:16:39;;;;;;;1.70;1.48;;;15.10;68.60;;;;;;5008852;28;20061;-81
2020/12/15 01:19:09;;;;;;;1.75;1.45;;;15.10;68.60;;;;;;5011634;28;20046;-81
2020/12/15 01:21:35;;;;;;;1.92;1.45;;;15.10;68.60;;;;;;5018782;28;20468;-81
2020/12/15 01:24:01;;;;;;;2.72;1.42;;;15.10;68.60;;;;;;5007932;28;20030;-81
2020/12/15 01:26:26;;;;;;;2.15;1.60;;;15.10;68.50;;;;;;5010342;28;20037;-82
2020/12/15 01:28:52;;;;;;;2.85;1.73;;;15.10;68.60;;;;;;5013172;28;20101;-82
2020/12/15 01:31:29;;;;;;;2.55;1.60;;;15.10;68.60;;;;;;5010420;28;20025;-82
2020/12/15 01:33:59;;;;;;;1.70;1.60;;;15.10;68.60;;;;;;5008794;28;20037;-81
2020/12/15 01:36:32;;;;;;;2.50;2.30;;;15.10;68.60;;;;;;4990999;28;20084;-82
2020/12/15 01:38:58;;;;;;;1.80;1.40;;;15.10;68.60;;;;;;5011245;28;20391;-81
2020/12/15 01:41:43;;;;;;;1.67;1.55;;;15.10;68.60;;;;;;5010937;28;20104;-82
2020/12/15 01:44:09;;;;;;;1.45;1.35;;;15.10;68.50;;;;;;5010248;28;20085;-82
2020/12/15 01:46:40;;;;;;;2.10;1.90;;;15.10;68.60;;;;;;5008727;28;20037;-82
2020/12/15 01:49:07;;;;;;;1.35;1.23;;;15.10;68.60;;;;;;5001044;28;20045;-81
2020/12/15 01:51:33;;;;;;;2.65;1.63;;;15.10;68.60;;;;;;5017897;28;20073;-81
2020/12/15 01:53:59;;;;;;;1.25;1.10;;;15.10;68.60;;;;;;5005676;28;20074;-81
2020/12/15 01:56:26;;;;;;;1.80;1.40;;;15.10;68.60;;;;;;4992505;28;20142;-82
2020/12/15 01:59:06;;;;;;;2.00;1.58;;;15.10;68.60;;;;;;5008162;28;20038;-81
2020/12/15 02:01:45;;;;;;;2.33;1.55;;;15.10;68.60;;;;;;4990033;28;21766;-81
2020/12/15 02:04:12;;;;;;;1.95;1.50;;;15.10;68.60;;;;;;4990044;28;20172;-81
2020/12/15 02:06:40;;;;;;;1.70;1.52;;;15.10;68.60;;;;;;4998871;28;20391;-82
2020/12/15 02:09:11;;;;;;;2.15;1.58;;;15.10;68.60;;;;;;5004854;28;20052;-82
2020/12/15 02:11:40;;;;;;;2.40;1.48;;;15.10;68.60;;;;;;5008858;28;20053;-81
2020/12/15 02:14:17;;;;;;;1.83;1.42;;;15.10;68.60;;;;;;5009523;28;20136;-81
2020/12/15 02:16:49;;;;;;;1.10;1.00;;;15.10;68.60;;;;;;4989779;28;20038;-81
2020/12/15 02:19:17;;;;;;;2.00;1.30;;;15.00;68.60;;;;;;4990157;28;20045;-82
2020/12/15 02:21:57;;;;;;;2.15;1.42;;;15.10;68.60;;;;;;4991999;28;20034;-81
2020/12/15 02:24:23;;;;;;;3.17;2.72;;;15.10;68.60;;;;;;5007819;28;20480;-82
2020/12/15 02:26:50;;;;;;;1.88;1.50;;;15.10;68.60;;;;;;4995429;28;20513;-81
2020/12/15 02:29:15;;;;;;;1.77;1.50;;;15.10;68.60;;;;;;5007324;28;20049;-82
2020/12/15 02:31:41;;;;;;;2.13;1.75;;;15.10;68.60;;;;;;4995462;28;20365;-83
2020/12/15 02:34:10;;;;;;;4.53;1.45;;;15.10;68.60;;;;;;5005525;28;20455;-81
2020/12/15 02:36:36;;;;;;;2.13;1.50;;;15.10;68.60;;;;;;4991729;28;20460;-82
2020/12/15 02:39:11;;;;;;;1.33;1.15;;;15.10;68.60;;;;;;5004431;28;20044;-81
2020/12/15 02:41:37;;;;;;;1.27;1.17;;;15.10;68.60;;;;;;4992420;28;20061;-81
2020/12/15 02:44:06;;;;;;;2.88;1.30;;;15.10;68.60;;;;;;4989188;28;20037;-81
2020/12/15 02:46:46;;;;;;;1.58;1.48;;;15.10;68.60;;;;;;5007013;28;20498;-82
2020/12/15 02:49:17;;;;;;;1.95;1.30;;;15.10;68.60;;;;;;5010363;28;20042;-81
2020/12/15 02:51:48;;;;;;;1.30;1.20;;;15.00;68.60;;;;;;4990879;28;20053;-82
2020/12/15 02:54:15;;;;;;;2.25;1.45;;;15.10;68.60;;;;;;5008042;28;20370;-82
2020/12/15 02:56:49;;;;;;;2.22;1.80;;;15.10;68.60;;;;;;4989934;28;20488;-81
2020/12/15 02:59:20;;;;;;;1.63;1.20;;;15.10;68.60;;;;;;4991210;28;20152;-81
2020/12/15 03:01:48;;;;;;;1.50;1.40;;;15.10;68.60;;;;;;4987575;28;20042;-81
2020/12/15 03:04:18;;;;;;;2.03;1.13;;;15.10;68.60;;;;;;5001697;28;20041;-81
2020/12/15 03:06:44;;;;;;;1.50;1.20;;;15.00;68.60;;;;;;5009248;28;20037;-81
2020/12/15 03:09:10;;;;;;;1.65;1.40;;;15.00;68.60;;;;;;5007408;28;20060;-82
2020/12/15 03:11:36;;;;;;;1.70;1.48;;;15.10;68.60;;;;;;4988226;28;20041;-81
2020/12/15 03:14:02;;;;;;;1.92;1.55;;;15.10;68.60;;;;;;5008672;28;20779;-81
2020/12/15 03:16:28;;;;;;;2.53;1.77;;;15.10;68.60;;;;;;5013965;28;20042;-81
2020/12/15 03:18:54;;;;;;;1.70;1.23;;;15.00;68.60;;;;;;5005881;28;20037;-82
2020/12/15 03:21:25;;;;;;;2.45;1.40;;;15.00;68.60;;;;;;5004836;28;20120;-81
2020/12/15 03:23:52;;;;;;;2.17;1.40;;;15.10;68.60;;;;;;5010994;28;20507;-81
2020/12/15 03:26:18;;;;;;;1.55;1.38;;;15.10;68.60;;;;;;5011397;28;20069;-82
2020/12/15 03:28:44;;;;;;;2.33;1.92;;;15.10;68.60;;;;;;5010120;28;20083;-83
2020/12/15 03:31:10;;;;;;;1.50;1.40;;;15.00;68.60;;;;;;4992790;28;20121;-81
2020/12/15 03:33:36;;;;;;;2.08;1.63;;;15.00;68.60;;;;;;5010500;28;20585;-82
2020/12/15 03:36:02;;;;;;;1.92;1.42;;;15.00;68.60;;;;;;5009472;28;20030;-82
2020/12/15 03:38:43;;;;;;;2.67;1.63;;;15.10;68.60;;;;;;5006074;28;20042;-80
2020/12/15 03:41:10;;;;;;;1.25;1.05;;;15.10;68.60;;;;;;5017893;28;20069;-82
2020/12/15 03:43:36;;;;;;;1.67;1.40;;;15.00;68.60;;;;;;5026740;28;20034;-81
2020/12/15 03:46:02;;;;;;;1.33;1.20;;;15.10;68.60;;;;;;5011664;28;20091;-81
2020/12/15 03:48:28;;;;;;;2.20;1.50;;;15.10;68.60;;;;;;5024541;28;20060;-81
2020/12/15 03:50:54;;;;;;;1.73;1.20;;;15.10;68.60;;;;;;5013735;28;20492;-82
2020/12/15 03:53:23;;;;;;;1.50;1.40;;;15.10;68.60;;;;;;5026813;28;20115;-81
2020/12/15 03:55:53;;;;;;;1.80;1.42;;;15.00;68.60;;;;;;5028426;28;20042;-81
2020/12/15 03:58:24;;;;;;;1.52;1.38;;;15.10;68.60;;;;;;5006499;28;20111;-82
2020/12/15 04:00:55;;;;;;;1.98;1.35;;;15.10;68.60;;;;;;5022406;28;20158;-81
2020/12/15 04:03:25;;;;;;;2.53;1.23;;;15.00;68.60;;;;;;5008186;28;20091;-81
2020/12/15 04:05:51;;;;;;;1.80;1.42;;;15.00;68.60;;;;;;5006960;28;20037;-81
2020/12/15 04:08:18;;;;;;;1.38;1.27;;;15.00;68.60;;;;;;5005886;28;20511;-82
2020/12/15 04:10:44;;;;;;;1.88;1.63;;;15.10;68.60;;;;;;5010733;28;20048;-81
2020/12/15 04:13:14;;;;;;;1.45;1.35;;;15.10;68.60;;;;;;5006117;28;20498;-81
2020/12/15 04:15:40;;;;;;;2.53;1.30;;;15.10;68.60;;;;;;5008072;28;20491;-81
2020/12/15 04:18:05;;;;;;;1.45;1.20;;;15.00;68.60;;;;;;5008202;28;20042;-81
2020/12/15 04:20:31;;;;;;;1.73;1.58;;;15.00;68.60;;;;;;5022757;28;20037;-82
2020/12/15 04:22:57;;;;;;;1.77;1.33;;;15.00;68.60;;;;;;5022166;28;20046;-81
2020/12/15 04:25:22;;;;;;;1.77;1.40;;;15.00;68.70;;;;;;5016967;28;20034;-81
2020/12/15 04:27:54;;;;;;;1.80;1.50;;;15.10;68.60;;;;;;5005217;28;20092;-82
2020/12/15 04:30:25;;;;;;;1.83;1.50;;;15.10;68.60;;;;;;5020392;28;20750;-81
2020/12/15 04:32:50;;;;;;;1.40;1.30;;;15.10;68.70;;;;;;5008911;28;20034;-82
2020/12/15 04:35:19;;;;;;;1.30;1.20;;;15.10;68.60;;;;;;5023460;28;20390;-81
2020/12/15 04:37:50;;;;;;;1.45;1.13;;;15.00;68.60;;;;;;5022976;28;20451;-81
2020/12/15 04:40:18;;;;;;;1.88;1.30;;;15.10;68.70;;;;;;5006933;28;20183;-80
2020/12/15 04:42:44;;;;;;;;;;;15.00;68.70;;;;;;5009623;28;20033;-81
2020/12/15 04:45:12;;;;;;;1.90;1.25;;;15.00;68.60;;;;;;5005659;28;19944;-81
2020/12/15 04:47:44;;;;;;;2.05;1.52;;;15.00;68.60;;;;;;5005716;28;20491;-81
2020/12/15 04:50:16;;;;;;;1.20;1.10;;;15.10;68.70;;;;;;5008921;28;20504;-81
2020/12/15 04:53:01;;;;;;;1.42;1.33;;;15.00;68.60;;;;;;5007240;28;20472;-81
2020/12/15 04:55:32;;;;;;;1.38;1.10;;;15.00;68.70;;;;;;4992149;28;20026;-80
2020/12/15 04:58:00;;;;;;;1.27;1.17;;;15.00;68.70;;;;;;5010483;28;20041;-80
2020/12/15 05:00:30;;;;;;;1.30;1.10;;;15.00;68.70;;;;;;5013981;28;20037;-80
2020/12/15 05:02:57;;;;;;;1.45;1.13;;;15.00;68.70;;;;;;5025533;28;20041;-80
2020/12/15 05:05:30;;;;;;;2.00;1.10;;;15.00;68.70;;;;;;4994076;28;20046;-81
2020/12/15 05:08:00;;;;;;;1.77;1.52;;;15.00;68.70;;;;;;5013907;28;20050;-82
2020/12/15 05:10:32;;;;;;;1.95;1.45;;;15.00;68.60;;;;;;5008861;28;20050;-84
2020/12/15 05:13:02;;;;;;;1.83;1.30;;;15.00;68.60;;;;;;5012230;28;20034;-82
2020/12/15 05:15:35;;;;;;;1.13;1.02;;;15.00;68.70;;;;;;5010857;28;20038;-81
2020/12/15 05:18:05;;;;;;;1.75;1.35;;;15.00;68.70;;;;;;4992240;28;20038;-82
2020/12/15 05:20:34;;;;;;;2.15;1.30;;;15.00;68.70;;;;;;4993413;28;20048;-82
2020/12/15 05:23:00;;;;;;;1.50;1.30;;;15.00;68.60;;;;;;5011297;28;20092;-82
2020/12/15 05:25:26;;;;;;;1.40;1.30;;;15.10;68.70;;;;;;5012676;28;20046;-82
2020/12/15 05:27:53;;;;;;;1.40;1.20;;;15.00;68.70;;;;;;5013774;28;20041;-82
2020/12/15 05:30:20;;;;;;;1.50;1.10;;;15.00;68.70;;;;;;4996501;28;20041;-81
2020/12/15 05:32:52;;;;;;;1.60;1.17;;;15.10;68.70;;;;;;5012978;28;20038;-81
2020/12/15 05:35:33;;;;;;;1.55;1.30;;;15.10;68.70;;;;;;4999483;28;20494;-81
2020/12/15 05:38:12;;;;;;;1.95;1.30;;;15.00;68.70;;;;;;5012466;28;20050;-83
2020/12/15 05:40:42;;;;;;;1.77;1.30;;;15.00;68.60;;;;;;5001188;28;20073;-82
2020/12/15 05:43:08;;;;;;;1.70;1.20;;;15.00;68.60;;;;;;5014154;28;20041;-82
2020/12/15 05:45:34;;;;;;;1.75;1.52;;;15.00;68.70;;;;;;5012771;28;20030;-82
2020/12/15 05:48:10;;;;;;;1.50;1.20;;;15.00;68.70;;;;;;5012272;28;20034;-82
2020/12/15 05:50:38;;;;;;;1.10;0.90;;;15.00;68.70;;;;;;5023661;28;20100;-81
2020/12/15 05:53:07;;;;;;;1.42;1.33;;;15.00;68.70;;;;;;5028017;28;20037;-81
2020/12/15 05:55:40;;;;;;;1.98;1.17;;;15.10;68.70;;;;;;5014003;28;20052;-81
2020/12/15 05:58:12;;;;;;;1.90;1.23;;;15.00;68.70;;;;;;5005608;28;20046;-82
2020/12/15 06:00:47;;;;;;;1.20;0.90;;;15.00;68.70;;;;;;5027884;28;20092;-82
2020/12/15 06:03:21;;;;;;;1.75;1.27;;;15.10;68.70;;;;;;5012207;28;20107;-82
2020/12/15 06:05:58;;;;;;;1.45;1.10;;;15.00;68.70;;;;;;5027837;28;20464;-81
2020/12/15 06:08:32;;;;;;;2.08;1.40;;;15.10;68.60;;;;;;5023308;28;20041;-82
2020/12/15 06:11:01;;;;;;;1.55;1.05;;;15.00;68.70;;;;;;5009878;28;20030;-82
2020/12/15 06:13:31;;;;;;;;;;;15.00;68.70;;;;;;5009008;28;20464;-83
2020/12/15 06:16:02;;;;;;;1.95;1.25;;;15.00;68.70;;;;;;5025463;28;19956;-83
2020/12/15 06:18:28;;;;;;;1.70;1.23;;;15.00;68.70;;;;;;4999382;28;20029;-82
2020/12/15 06:20:58;;;;;;;1.25;1.05;;;15.00;68.70;;;;;;5010739;28;20387;-82
2020/12/15 06:23:29;;;;;;;2.13;1.30;;;15.10;68.70;;;;;;5011286;28;20034;-81
2020/12/15 06:25:54;;;;;;;2.58;1.63;;;15.00;68.70;;;;;;5011828;28;20032;-82
2020/12/15 06:28:30;;;;;;;1.20;1.10;;;15.00;68.70;;;;;;5013551;28;20034;-83
2020/12/15 06:31:02;;;;;;;1.33;1.20;;;15.00;68.70;;;;;;5013723;28;20068;-81
2020/12/15 06:33:34;;;;;;;1.52;1.20;;;15.10;68.70;;;;;;5013243;28;20037;-82
2020/12/15 06:36:03;;;;;;;1.58;1.20;;;15.00;68.70;;;;;;5025030;28;20057;-82
2020/12/15 06:38:29;;;;;;;1.40;1.30;;;15.00;68.70;;;;;;5021563;28;20072;-82
2020/12/15 06:41:02;;;;;;;1.83;1.45;;;15.00;68.70;;;;;;5022658;28;20073;-83
2020/12/15 06:43:30;;;;;;;1.15;1.00;;;15.00;68.70;;;;;;5009139;28;20471;-82
2020/12/15 06:46:06;;;;;;;1.40;1.10;;;15.00;68.70;;;;;;5010717;28;20034;-82
2020/12/15 06:48:33;;;;;;;1.60;1.23;;;15.10;68.70;;;;;;5003907;28;20121;-82
2020/12/15 06:51:01;;;;;;;1.17;1.08;;;15.00;68.60;;;;;;5030347;28;20402;-82
2020/12/15 06:53:32;;;;;;;1.35;1.20;;;15.00;68.70;;;;;;5012850;28;20061;-83
2020/12/15 06:56:03;;;;;;;1.15;1.05;;;15.00;68.70;;;;;;5009207;28;20602;-82
2020/12/15 06:58:33;;;;;;;1.10;0.80;;;15.00;68.70;;;;;;5026148;28;20129;-81
2020/12/15 07:00:59;;;;;;;1.60;1.35;;;15.00;68.60;;;;;;5034072;28;20134;-80
2020/12/15 07:03:44;;;;;;;1.20;1.10;;;15.00;68.60;;;;;;5036749;28;20070;-81
2020/12/15 07:06:16;;;;;;;1.38;1.27;;;15.10;68.60;;;;;;5013177;28;20073;-81
2020/12/15 07:09:16;;;;;;;1.30;1.20;;;15.00;68.70;;;;;;5031322;28;20034;-82
2020/12/15 07:11:57;;;;;;;1.17;1.08;;;15.00;68.60;;;;;;5029357;28;20037;-81
2020/12/15 07:14:23;;;;;;;2.33;1.30;;;15.00;68.70;;;;;;5015672;28;20048;-82
2020/12/15 07:16:55;;;;;;;1.02;0.98;;;15.00;68.60;;;;;;5014934;28;20045;-81
2020/12/15 07:19:34;;;;;;;1.30;1.20;;;15.10;68.60;;;;;;5026802;28;20030;-83
2020/12/15 07:22:06;;;;;;;1.42;1.25;;;15.00;68.70;;;;;;5015459;28;20519;-80
2020/12/15 07:24:39;;;;;;;1.25;1.13;;;15.00;68.60;;;;;;5015358;28;20112;-82
2020/12/15 07:27:25;;;;;;;1.75;1.35;;;15.00;68.60;;;;;;5014107;28;20062;-81
2020/12/15 07:29:59;;;;;;;1.45;1.35;;;15.00;68.60;;;;;;4972266;28;20046;-82
2020/12/15 07:32:30;;;;;;;1.60;1.17;;;15.10;68.60;;;;;;4978694;28;20040;-82
2020/12/15 07:35:08;;;;;;;1.35;1.10;;;15.10;68.60;;;;;;4990324;28;20039;-80
2020/12/15 07:37:40;;;;;;;1.40;1.30;;;15.10;68.60;;;;;;4967135;28;20070;-82
2020/12/15 07:40:14;;;;;;;1.50;1.10;;;15.10;68.50;;;;;;4990209;28;20041;-82
2020/12/15 07:42:53;;;;;;;2.45;1.60;;;15.10;68.60;;;;;;4978427;28;20118;-82
2020/12/15 07:45:19;;;;;;;1.88;1.33;;;15.10;68.50;;;;;;4990136;28;20585;-81
2020/12/15 07:47:48;;;;;;;1.52;1.40;;;15.10;68.50;;;;;;4991326;28;20121;-82
2020/12/15 07:50:17;;;;;;;1.55;1.35;;;15.10;68.50;;;;;;4991619;28;20077;-81
2020/12/15 07:52:50;;;;;;;1.38;1.15;;;15.00;68.50;;;;;;4992708;28;20039;-80
2020/12/15 07:55:16;;;;;;;1.88;1.50;;;15.10;68.50;;;;;;4990368;28;20125;-81
2020/12/15 07:57:44;;;;;;;1.52;1.05;;;15.10;68.50;;;;;;4992986;28;20511;-83
2020/12/15 08:00:30;;;;;;;1.23;1.10;;;15.10;68.50;;;;;;4974795;28;20046;-80
2020/12/15 08:03:17;;;;;;;;;;;;;;;;;;;;;
2020/12/15 08:05:43;;;;;;;1.65;1.15;;;15.10;68.40;;;;;;4994093;28;20492;-80
2020/12/15 08:08:09;;;;;;;1.30;1.20;;;15.10;68.40;;;;;;5014838;28;20129;-81
2020/12/15 08:10:40;;;;;;;1.80;1.20;;;15.10;68.40;;;;;;5030166;28;20261;-81
2020/12/15 08:13:10;;;;;;;1.30;1.20;;;15.10;68.40;;;;;;5013719;28;20057;-81
2020/12/15 08:15:39;;;;;;;1.40;1.15;;;15.10;68.40;;;;;;5013636;28;20041;-80
2020/12/15 08:18:11;;;;;;;1.65;1.25;;;15.10;68.40;;;;;;5029072;28;20405;-81
2020/12/15 08:20:41;;;;;;;1.10;1.00;;;15.10;68.30;;;;;;5033514;28;21785;-81
2020/12/15 08:23:15;;;;;;;1.30;0.90;;;15.10;68.30;;;;;;5013534;28;20375;-82
2020/12/15 08:25:43;;;;;;;0.90;0.77;;;15.10;68.30;;;;;;5022083;28;20034;-81
2020/12/15 08:28:11;;;;;;;;;;;15.20;68.30;;;;;;5011674;28;20042;-83
2020/12/15 08:30:38;;;;;;;1.17;1.08;;;15.20;68.30;;;;;;5009309;28;20534;-82
2020/12/15 08:33:04;;;;;;;1.10;1.00;;;15.20;68.20;;;;;;5010164;28;20427;-82
2020/12/15 08:35:30;;;;;;;1.67;1.20;;;15.20;68.20;;;;;;5010695;28;20097;-82
2020/12/15 08:38:05;;;;;;;1.17;0.90;;;15.20;68.20;;;;;;5008792;28;20124;-82
2020/12/15 08:40:34;;;;;;;1.30;1.20;;;15.20;68.20;;;;;;5023164;28;20038;-81
2020/12/15 08:43:02;;;;;;;;;;;15.10;68.20;;;;;;5010694;28;20121;-79
2020/12/15 08:45:29;;;;;;;1.20;1.10;;;15.20;68.20;;;;;;5012287;28;19913;-79
2020/12/15 08:47:57;;;;;;;1.98;1.23;;;15.20;68.20;;;;;;5011644;28;20042;-80
2020/12/15 08:50:32;;;;;;;1.25;0.95;;;15.20;68.10;;;;;;5025429;28;20088;-80
2020/12/15 08:53:17;;;;;;;2.45;1.30;;;15.20;68.10;;;;;;5024309;28;20041;-81
2020/12/15 08:55:47;;;;;;;1.85;1.42;;;15.20;68.10;;;;;;5021153;28;20555;-81
2020/12/15 08:58:18;;;;;;;1.75;1.13;;;15.20;68.10;;;;;;5006395;28;20396;-81
2020/12/15 09:00:46;;;;;;;0.98;0.82;;;15.20;68.00;;;;;;5007283;28;20472;-80
2020/12/15 09:03:14;;;;;;;1.65;1.27;;;15.20;68.00;;;;;;5026835;28;20483;-80
2020/12/15 09:05:56;;;;;;;1.63;1.15;;;15.20;68.00;;;;;;5008333;28;20073;-81
2020/12/15 09:08:26;;;;;;;2.47;1.30;;;15.20;68.00;;;;;;5007560;28;20079;-81
2020/12/15 09:10:54;;;;;;;1.75;1.27;;;15.20;67.90;;;;;;5009166;28;20049;-81
2020/12/15 09:13:30;;;;;;;1.50;1.10;;;15.20;67.90;;;;;;5007515;28;20374;-81
2020/12/15 09:16:03;;;;;;;1.45;1.05;;;15.30;67.90;;;;;;5006339;28;20052;-81
2020/12/15 09:18:44;;;;;;;1.25;1.10;;;15.30;67.90;;;;;;5022285;28;20079;-83
2020/12/15 09:21:14;;;;;;;1.20;1.10;;;15.30;67.90;;;;;;5005558;28;20029;-81
2020/12/15 09:23:47;;;;;;;1.20;1.00;;;15.30;67.90;;;;;;5005273;28;20030;-80
2020/12/15 09:26:12;;;;;;;1.60;1.08;;;15.30;67.90;;;;;;5006801;28;20095;-79
2020/12/15 09:28:38;;;;;;;1.20;1.10;;;15.30;67.80;;;;;;5015602;28;20034;-80
2020/12/15 09:31:24;;;;;;;1.15;0.90;;;15.20;67.80;;;;;;5008953;28;20403;-79
2020/12/15 09:33:50;;;;;;;1.30;1.13;;;15.30;67.90;;;;;;5006127;28;20041;-77
2020/12/15 09:36:21;;;;;;;1.85;1.10;;;15.30;67.80;;;;;;5008382;28;20121;-81
2020/12/15 09:38:51;;;;;;;1.60;1.35;;;15.30;67.80;;;;;;5007049;28;20034;-79
2020/12/15 09:41:18;;;;;;;1.20;0.93;;;15.30;67.70;;;;;;5012715;28;20038;-80
2020/12/15 09:43:43;;;;;;;1.17;1.05;;;15.30;67.70;;;;;;5011753;28;20026;-80
2020/12/15 09:46:10;;;;;;;1.23;0.98;;;15.30;67.70;;;;;;5009880;28;20034;-80
2020/12/15 09:48:40;;;;;;;1.98;1.30;;;15.30;67.70;;;;;;4993671;28;20033;-78
2020/12/15 09:51:07;;;;;;;1.15;1.05;;;15.30;67.70;;;;;;4980435;28;20038;-80
2020/12/15 09:53:33;;;;;;;2.13;1.20;;;15.30;67.70;;;;;;5007379;28;20129;-79
2020/12/15 09:55:59;;;;;;;1.63;1.20;;;15.30;67.70;;;;;;5011674;28;20065;-80
2020/12/15 09:58:33;;;;;;;1.65;1.25;;;15.30;67.80;;;;;;4992105;28;20030;-81
2020/12/15 10:01:00;;;;;;;1.30;1.00;;;15.30;67.80;;;;;;5001845;28;20455;-82
2020/12/15 10:03:28;;;;;;;2.35;1.38;;;15.30;67.80;;;;;;5005007;28;20459;-81
2020/12/15 10:06:00;;;;;;;;;;;15.30;67.70;;;;;;4990205;28;20042;-79
2020/12/15 10:08:25;;;;;;;1.05;0.95;;;15.30;67.70;;;;;;5005086;28;19917;-82
2020/12/15 10:10:57;;;;;;;1.42;1.20;;;15.30;67.70;;;;;;5009084;28;20030;-82
2020/12/15 10:13:22;;;;;;;1.27;1.17;;;15.30;67.70;;;;;;5008190;28;20038;-79
2020/12/15 10:15:48;;;;;;;1.10;1.00;;;15.30;67.70;;;;;;5008103;28;20044;-82
2020/12/15 10:18:19;;;;;;;1.15;1.05;;;15.30;67.70;;;;;;5006509;28;20495;-81
2020/12/15 10:20:49;;;;;;;1.77;1.23;;;15.30;67.60;;;;;;5011007;28;20042;-79
2020/12/15 10:23:22;;;;;;;2.00;1.00;;;15.30;67.60;;;;;;5010809;28;20083;-81
2020/12/15 10:25:47;;;;;;;1.00;0.80;;;15.30;67.60;;;;;;5010406;28;20049;-80
2020/12/15 10:28:19;;;;;;;1.48;1.38;;;15.30;67.60;;;;;;4994126;28;20046;-83
2020/12/15 10:30:51;;;;;;;1.13;0.98;;;15.30;67.60;;;;;;4994709;28;20655;-81
2020/12/15 10:33:20;;;;;;;1.40;1.15;;;15.30;67.60;;;;;;4996459;28;20391;-84
2020/12/15 10:35:48;;;;;;;1.50;0.98;;;15.30;67.60;;;;;;5011797;28;20165;-83
2020/12/15 10:38:14;;;;;;;3.03;1.20;;;15.30;67.60;;;;;;5011504;28;20038;-83
2020/12/15 10:40:47;;;;;;;1.45;1.30;;;15.30;67.60;;;;;;5012884;28;20049;-83
2020/12/15 10:43:16;;;;;;;1.77;1.10;;;15.30;67.60;;;;;;5008167;28;20125;-84
2020/12/15 10:45:42;;;;;;;1.17;1.08;;;15.30;67.60;;;;;;5008919;28;20033;-84
2020/12/15 10:48:14;;;;;;;1.00;0.80;;;15.30;67.50;;;;;;5025339;28;20133;-83
2020/12/15 10:50:45;;;;;;;1.30;1.10;;;15.30;67.60;;;;;;5008881;28;20030;-83
2020/12/15 10:53:12;;;;;;;2.35;1.50;;;15.30;67.60;;;;;;5024757;28;20030;-82
2020/12/15 10:55:41;;;;;;;1.40;1.10;;;15.30;67.60;;;;;;5007005;28;20113;-84
2020/12/15 10:58:11;;;;;;;2.08;1.02;;;15.30;67.60;;;;;;5024332;28;20507;-84
2020/12/15 11:00:42;;;;;;;1.40;1.20;;;15.30;67.60;;;;;;5008225;28;20038;-83
2020/12/15 11:03:10;;;;;;;1.70;1.13;;;15.30;67.60;;;;;;5009468;28;20042;-83
2020/12/15 11:05:36;;;;;;;1.13;1.02;;;15.30;67.70;;;;;;5007516;28;20372;-84
2020/12/15 11:08:02;;;;;;;1.30;0.93;;;15.30;67.70;;;;;;5023760;28;20096;-83
2020/12/15 11:10:32;;;;;;;1.20;1.10;;;15.30;67.70;;;;;;5007958;28;20069;-83
2020/12/15 11:13:00;;;;;;;1.25;0.90;;;15.30;67.70;;;;;;5024378;28;20165;-83
2020/12/15 11:15:25;;;;;;;1.17;1.08;;;15.30;67.70;;;;;;5008562;28;20049;-82
2020/12/15 11:17:51;;;;;;;1.02;0.93;;;15.30;67.70;;;;;;5008727;28;20075;-83
2020/12/15 11:20:21;;;;;;;1.65;1.30;;;15.30;67.70;;;;;;5009008;28;20390;-81
2020/12/15 11:22:47;;;;;;;1.52;1.00;;;15.30;67.70;;;;;;5012342;28;20052;-82
2020/12/15 11:25:17;;;;;;;1.50;1.30;;;15.30;67.70;;;;;;5023661;28;20125;-82
2020/12/15 11:27:47;;;;;;;1.65;1.10;;;15.30;67.70;;;;;;4999921;28;20452;-79
2020/12/15 11:30:15;;;;;;;1.27;0.95;;;15.30;67.70;;;;;;5008764;28;20128;-80
2020/12/15 11:32:41;;;;;;;1.35;1.17;;;15.30;67.70;;;;;;5008814;28;20794;-78
2020/12/15 11:35:07;;;;;;;1.00;0.90;;;15.30;67.70;;;;;;5012097;28;20108;-80
2020/12/15 11:37:32;;;;;;;1.05;0.85;;;15.30;67.70;;;;;;5027231;28;20120;-79
2020/12/15 11:40:01;;;;;;;1.08;0.98;;;15.30;67.60;;;;;;5014077;28;20425;-78
2020/12/15 11:42:27;;;;;;;1.15;1.05;;;15.30;67.60;;;;;;5013220;28;20116;-79
2020/12/15 11:44:57;;;;;;;1.65;1.20;;;15.30;67.60;;;;;;4994513;28;20136;-79
2020/12/15 11:47:28;;;;;;;1.25;1.08;;;15.30;67.60;;;;;;5000920;28;20125;-79
2020/12/15 11:49:53;;;;;;;2.47;1.20;;;15.30;67.60;;;;;;4994311;28;20038;-79
2020/12/15 11:52:19;;;;;;;1.20;1.05;;;15.30;67.60;;;;;;5011362;28;20041;-80
2020/12/15 11:54:45;;;;;;;1.20;1.10;;;15.30;67.60;;;;;;5012067;28;20041;-79
2020/12/15 11:57:14;;;;;;;1.75;1.20;;;15.30;67.50;;;;;;4993687;28;20431;-79
2020/12/15 11:59:39;;;;;;;1.48;1.10;;;15.30;67.40;;;;;;5011835;28;20545;-79
2020/12/15 12:02:06;;;;;;;1.45;1.05;;;15.40;67.30;;;;;;5012061;28;20030;-79
2020/12/15 12:04:36;;;;;;;1.70;1.13;;;15.40;67.30;;;;;;4995127;28;20092;-80
2020/12/15 12:07:02;;;;;;;1.08;0.95;;;15.50;67.30;;;;;;5014853;28;20088;-78
2020/12/15 12:09:33;;;;;;;1.20;0.95;;;15.40;67.30;;;;;;4994918;28;20439;-80
2020/12/15 12:11:58;;;;;;;1.08;0.93;;;15.40;67.30;;;;;;5011656;28;20108;-80
2020/12/15 12:14:24;;;;;;;3.08;1.27;;;15.40;67.30;;;;;;5013445;28;20121;-79
2020/12/15 12:16:49;;;;;;;2.03;1.20;;;15.40;67.40;;;;;;5020458;28;20445;-80
2020/12/15 12:19:18;;;;;;;1.00;0.90;;;15.40;67.40;;;;;;5011057;28;20065;-81
2020/12/15 12:21:44;;;;;;;1.15;1.05;;;15.40;67.40;;;;;;5017054;28;20065;-79
2020/12/15 12:24:11;;;;;;;0.95;0.90;;;15.40;67.50;;;;;;5012221;28;20491;-79
2020/12/15 12:26:40;;;;;;;1.27;0.95;;;15.40;67.50;;;;;;5012770;28;20048;-79
2020/12/15 12:29:05;;;;;;;1.13;1.00;;;15.40;67.50;;;;;;5008618;28;20038;-79
2020/12/15 12:31:36;;;;;;;1.63;1.02;;;15.40;67.50;;;;;;5010629;28;20377;-80
2020/12/15 12:34:01;;;;;;;1.52;1.17;;;15.40;67.50;;;;;;5009452;28;20153;-79
2020/12/15 12:36:34;;;;;;;1.75;1.35;;;15.40;67.50;;;;;;4994748;28;20511;-79
2020/12/15 12:39:00;;;;;;;1.15;0.80;;;15.40;67.50;;;;;;4987155;28;20065;-79
2020/12/15 12:41:31;;;;;;;1.35;1.00;;;15.40;67.40;;;;;;5010720;28;20050;-80
2020/12/15 12:43:57;;;;;;;1.85;1.10;;;15.40;67.40;;;;;;5013574;28;20037;-79
2020/12/15 12:46:27;;;;;;;1.08;0.88;;;15.40;67.40;;;;;;5008561;28;20026;-80
2020/12/15 12:48:53;;;;;;;0.93;0.82;;;15.40;67.30;;;;;;5009224;28;20385;-80
2020/12/15 12:51:22;;;;;;;1.48;1.17;;;15.40;67.30;;;;;;5009161;28;20399;-80
2020/12/15 12:53:49;;;;;;;1.27;0.88;;;15.40;67.40;;;;;;5010369;28;20037;-80
2020/12/15 12:56:19;;;;;;;1.60;1.15;;;15.40;67.40;;;;;;5014862;28;20026;-79
2020/12/15 12:58:44;;;;;;;1.42;1.10;;;15.40;67.40;;;;;;5003042;28;20036;-79
2020/12/15 13:01:10;;;;;;;1.00;0.93;;;15.40;67.40;;;;;;5010012;28;20038;-78